createdAt,value
2022-11-25T00:00:06.841Z,99.99
2022-11-25T00:01:06.840Z,99.99
2022-11-25T00:02:06.944Z,99.99
2022-11-25T00:03:06.913Z,99.99
2022-11-25T00:04:06.837Z,99.99
2022-11-25T00:05:07.720Z,99.99
2022-11-25T00:06:06.850Z,99.99
2022-11-25T00:07:06.775Z,99.99
2022-11-25T00:08:06.890Z,99.99
2022-11-25T00:09:06.757Z,99.99
2022-11-25T00:10:06.795Z,99.99
2022-11-25T00:11:06.732Z,99.99
2022-11-25T00:12:06.728Z,99.99
2022-11-25T00:13:06.721Z,99.99
2022-11-25T00:14:06.702Z,99.99
2022-11-25T00:15:06.701Z,99.99
2022-11-25T00:16:06.816Z,99.99
2022-11-25T00:17:17.414Z,99.99
2022-11-25T00:18:06.664Z,99.99
2022-11-25T00:19:06.661Z,99.99
2022-11-25T00:20:06.735Z,99.99
2022-11-25T00:21:06.648Z,99.99
2022-11-25T00:22:06.665Z,99.99
2022-11-25T00:23:06.619Z,99.99
2022-11-25T00:24:06.625Z,99.99
2022-11-25T00:25:06.612Z,99.99
2022-11-25T00:26:06.586Z,99.99
2022-11-25T00:27:06.614Z,99.99
2022-11-25T00:28:06.565Z,99.99
2022-11-25T00:29:06.562Z,99.99
2022-11-25T00:30:06.550Z,99.99
2022-11-25T00:31:06.536Z,99.99
2022-11-25T00:32:06.528Z,99.99
2022-11-25T00:33:06.537Z,99.99
2022-11-25T00:34:06.545Z,99.99
2022-11-25T00:35:06.492Z,99.99
2022-11-25T00:36:06.491Z,99.99
2022-11-25T00:37:06.487Z,99.99
2022-11-25T00:38:06.473Z,99.99
2022-11-25T00:39:06.484Z,99.99
2022-11-25T00:40:06.480Z,99.99
2022-11-25T00:41:06.437Z,99.99
2022-11-25T00:42:06.421Z,99.99
2022-11-25T00:43:06.424Z,99.99
2022-11-25T00:44:06.447Z,99.99
2022-11-25T00:45:06.392Z,99.99
2022-11-25T00:46:06.546Z,99.99
2022-11-25T00:47:06.376Z,99.99
2022-11-25T00:48:06.363Z,99.99
2022-11-25T00:49:06.395Z,99.99
2022-11-25T00:50:06.349Z,99.99
2022-11-25T00:51:06.334Z,99.99
2022-11-25T00:52:06.340Z,99.99
2022-11-25T00:53:06.332Z,99.99
2022-11-25T00:54:06.353Z,99.99
2022-11-25T00:55:06.299Z,99.99
2022-11-25T00:56:06.310Z,99.99
2022-11-25T00:57:06.276Z,99.99
2022-11-25T00:58:06.264Z,99.99
2022-11-25T00:59:06.258Z,99.99
2022-11-25T01:00:06.285Z,99.99
2022-11-25T01:01:06.339Z,99.99
2022-11-25T01:02:06.321Z,99.99
2022-11-25T01:03:06.212Z,99.99
2022-11-25T01:04:06.226Z,99.99
2022-11-25T01:05:06.190Z,99.99
2022-11-25T01:06:06.204Z,99.99
2022-11-25T01:07:06.196Z,99.99
2022-11-25T01:08:06.162Z,99.99
2022-11-25T01:09:06.167Z,99.99
2022-11-25T01:10:06.165Z,99.99
2022-11-25T01:11:06.169Z,99.99
2022-11-25T01:12:06.146Z,99.99
2022-11-25T01:13:06.166Z,99.99
2022-11-25T01:14:06.111Z,99.99
2022-11-25T01:15:06.130Z,99.99
2022-11-25T01:16:06.203Z,99.99
2022-11-25T01:17:06.104Z,99.99
2022-11-25T01:18:06.070Z,99.99
2022-11-25T01:19:06.074Z,99.99
2022-11-25T01:20:06.715Z,99.99
2022-11-25T01:21:06.033Z,99.99
2022-11-25T01:22:06.054Z,99.99
2022-11-25T01:23:06.037Z,99.99
2022-11-25T01:24:05.998Z,99.99
2022-11-25T01:25:05.994Z,99.99
2022-11-25T01:26:05.992Z,99.99
2022-11-25T01:27:05.994Z,99.99
2022-11-25T01:28:05.991Z,99.99
2022-11-25T01:29:06.307Z,99.99
2022-11-25T01:30:05.946Z,99.99
2022-11-25T01:31:05.927Z,99.99
2022-11-25T01:32:05.998Z,99.99
2022-11-25T01:33:05.909Z,99.99
2022-11-25T01:34:05.916Z,99.99
2022-11-25T01:35:05.909Z,99.99
2022-11-25T01:36:05.906Z,99.99
2022-11-25T01:37:05.869Z,99.99
2022-11-25T01:38:05.863Z,99.99
2022-11-25T01:39:05.854Z,99.99
2022-11-25T01:40:05.878Z,99.99
2022-11-25T01:41:05.826Z,99.99
2022-11-25T01:42:05.813Z,99.99
2022-11-25T01:43:05.808Z,99.99
2022-11-25T01:44:05.828Z,99.99
2022-11-25T01:45:05.791Z,99.99
2022-11-25T01:46:05.880Z,99.99
2022-11-25T01:47:05.780Z,99.99
2022-11-25T01:48:05.760Z,99.99
2022-11-25T01:49:05.748Z,99.99
2022-11-25T01:50:05.743Z,99.99
2022-11-25T01:51:05.729Z,99.99
2022-11-25T01:52:05.750Z,99.99
2022-11-25T01:53:05.727Z,99.99
2022-11-25T01:54:05.708Z,99.99
2022-11-25T01:55:05.691Z,99.99
2022-11-25T01:56:05.683Z,99.99
2022-11-25T01:57:05.734Z,99.99
2022-11-25T01:58:05.740Z,99.99
2022-11-25T01:59:05.647Z,99.99
2022-11-25T02:00:05.661Z,99.99
2022-11-25T02:01:05.678Z,99.99
2022-11-25T02:02:05.635Z,99.99
2022-11-25T02:03:05.639Z,99.99
2022-11-25T02:04:05.614Z,99.99
2022-11-25T02:05:05.589Z,99.99
2022-11-25T02:06:05.580Z,99.99
2022-11-25T02:07:05.572Z,99.99
2022-11-25T02:08:05.589Z,99.99
2022-11-25T02:09:05.565Z,99.99
2022-11-25T02:10:05.559Z,99.99
2022-11-25T02:11:05.570Z,99.99
2022-11-25T02:12:05.532Z,99.99
2022-11-25T02:13:05.544Z,99.99
2022-11-25T02:14:05.500Z,99.99
2022-11-25T02:15:05.500Z,99.99
2022-11-25T02:16:05.607Z,99.99
2022-11-25T02:17:05.504Z,99.99
2022-11-25T02:18:05.498Z,99.99
2022-11-25T02:19:05.522Z,99.99
2022-11-25T02:20:05.474Z,99.99
2022-11-25T02:21:05.478Z,99.99
2022-11-25T02:22:05.435Z,99.99
2022-11-25T02:23:05.408Z,99.99
2022-11-25T02:24:05.472Z,99.99
2022-11-25T02:25:05.393Z,99.99
2022-11-25T02:26:05.392Z,99.99
2022-11-25T02:27:05.365Z,99.99
2022-11-25T02:28:05.360Z,99.99
2022-11-25T02:29:05.347Z,99.99
2022-11-25T02:30:05.357Z,99.99
2022-11-25T02:31:05.367Z,99.99
2022-11-25T02:32:05.432Z,99.99
2022-11-25T02:33:05.353Z,99.99
2022-11-25T02:34:05.290Z,99.99
2022-11-25T02:35:05.301Z,99.99
2022-11-25T02:36:05.295Z,99.99
2022-11-25T02:37:05.268Z,99.99
2022-11-25T02:38:05.253Z,99.99
2022-11-25T02:39:05.248Z,99.99
2022-11-25T02:40:05.237Z,99.99
2022-11-25T02:41:05.247Z,99.99
2022-11-25T02:42:05.264Z,99.99
2022-11-25T02:43:05.232Z,99.99
2022-11-25T02:44:05.200Z,99.99
2022-11-25T02:45:05.199Z,99.99
2022-11-25T02:46:05.246Z,99.99
2022-11-25T02:47:05.162Z,99.99
2022-11-25T02:48:05.194Z,99.99
2022-11-25T02:49:09.623Z,99.99
2022-11-25T02:50:05.219Z,99.99
2022-11-25T02:51:05.123Z,99.99
2022-11-25T02:52:05.119Z,99.99
2022-11-25T02:53:05.124Z,99.99
2022-11-25T02:54:05.154Z,99.99
2022-11-25T02:55:05.104Z,99.99
2022-11-25T02:56:05.070Z,99.99
2022-11-25T02:57:05.081Z,99.99
2022-11-25T02:58:05.053Z,99.99
2022-11-25T02:59:05.044Z,99.99
2022-11-25T03:00:05.032Z,99.99
2022-11-25T03:01:05.131Z,99.99
2022-11-25T03:02:05.117Z,99.99
2022-11-25T03:03:05.006Z,99.99
2022-11-25T03:04:05.026Z,99.99
2022-11-25T03:05:04.979Z,99.99
2022-11-25T03:06:04.979Z,99.99
2022-11-25T03:07:04.981Z,99.99
2022-11-25T03:08:04.988Z,99.99
2022-11-25T03:09:04.974Z,99.99
2022-11-25T03:10:05.036Z,99.99
2022-11-25T03:11:04.920Z,99.99
2022-11-25T03:12:04.914Z,99.99
2022-11-25T03:13:04.919Z,99.99
2022-11-25T03:14:04.887Z,99.99
2022-11-25T03:15:04.879Z,99.99
2022-11-25T03:16:04.942Z,99.99
2022-11-25T03:17:04.882Z,99.99
2022-11-25T03:18:04.850Z,99.99
2022-11-25T03:19:04.877Z,99.99
2022-11-25T03:20:04.856Z,99.99
2022-11-25T03:21:04.821Z,99.99
2022-11-25T03:22:04.815Z,99.99
2022-11-25T03:23:04.810Z,99.99
2022-11-25T03:24:04.824Z,99.99
2022-11-25T03:25:04.784Z,99.99
2022-11-25T03:26:04.799Z,99.99
2022-11-25T03:27:04.756Z,99.99
2022-11-25T03:28:04.779Z,99.99
2022-11-25T03:29:04.737Z,99.99
2022-11-25T03:30:04.772Z,99.99
2022-11-25T03:31:04.717Z,99.99
2022-11-25T03:32:09.280Z,99.99
2022-11-25T03:33:05.703Z,99.99
2022-11-25T03:34:04.700Z,99.99
2022-11-25T03:35:04.688Z,99.99
2022-11-25T03:36:04.720Z,99.99
2022-11-25T03:37:04.751Z,99.99
2022-11-25T03:38:04.651Z,99.99
2022-11-25T03:39:04.643Z,99.99
2022-11-25T03:40:04.635Z,99.99
2022-11-25T03:41:04.656Z,99.99
2022-11-25T03:42:04.625Z,99.99
2022-11-25T03:43:04.598Z,99.99
2022-11-25T03:44:04.591Z,99.99
2022-11-25T03:45:04.573Z,99.99
2022-11-25T03:46:04.681Z,99.99
2022-11-25T03:47:04.573Z,99.99
2022-11-25T03:48:04.553Z,99.99
2022-11-25T03:49:04.561Z,99.99
2022-11-25T03:50:04.624Z,99.99
2022-11-25T03:51:04.523Z,99.99
2022-11-25T03:52:04.554Z,99.99
2022-11-25T03:53:04.502Z,99.99
2022-11-25T03:54:04.514Z,99.99
2022-11-25T03:55:04.491Z,99.99
2022-11-25T03:56:04.484Z,99.99
2022-11-25T03:57:04.473Z,99.99
2022-11-25T03:58:04.508Z,99.99
2022-11-25T03:59:04.439Z,99.99
2022-11-25T04:00:04.437Z,99.99
2022-11-25T04:01:04.566Z,99.99
2022-11-25T04:02:04.511Z,99.99
2022-11-25T04:03:04.402Z,99.99
2022-11-25T04:04:04.420Z,99.99
2022-11-25T04:05:04.399Z,99.99
2022-11-25T04:06:04.376Z,99.99
2022-11-25T04:07:04.399Z,99.99
2022-11-25T04:08:04.408Z,99.99
2022-11-25T04:09:04.342Z,99.99
2022-11-25T04:10:04.345Z,99.99
2022-11-25T04:11:04.313Z,99.99
2022-11-25T04:12:04.310Z,99.99
2022-11-25T04:13:04.297Z,99.99
2022-11-25T04:14:04.291Z,99.99
2022-11-25T04:15:04.329Z,99.99
2022-11-25T04:16:04.304Z,99.99
2022-11-25T04:17:04.344Z,99.99
2022-11-25T04:18:04.255Z,99.99
2022-11-25T04:19:04.235Z,99.99
2022-11-25T04:20:04.233Z,99.99
2022-11-25T04:21:04.217Z,99.99
2022-11-25T04:22:04.239Z,99.99
2022-11-25T04:23:04.195Z,99.99
2022-11-25T04:24:04.210Z,99.99
2022-11-25T04:25:11.699Z,99.99
2022-11-25T04:26:04.175Z,99.99
2022-11-25T04:27:04.174Z,99.99
2022-11-25T04:28:04.144Z,99.99
2022-11-25T04:29:04.166Z,99.99
2022-11-25T04:30:04.136Z,99.99
2022-11-25T04:31:04.193Z,99.99
2022-11-25T04:32:04.112Z,99.99
2022-11-25T04:33:04.137Z,99.99
2022-11-25T04:34:04.086Z,99.99
2022-11-25T04:35:04.080Z,99.99
2022-11-25T04:36:04.079Z,99.99
2022-11-25T04:37:04.096Z,99.99
2022-11-25T04:38:04.056Z,99.99
2022-11-25T04:39:04.075Z,99.99
2022-11-25T04:40:04.052Z,99.99
2022-11-25T04:41:04.010Z,99.99
2022-11-25T04:42:04.001Z,99.99
2022-11-25T04:43:09.136Z,99.99
2022-11-25T04:44:05.035Z,99.99
2022-11-25T04:46:20.474Z,99.99
2022-11-25T04:47:05.058Z,99.99
2022-11-25T04:48:03.949Z,99.99
2022-11-25T04:49:03.951Z,99.99
2022-11-25T04:50:04.045Z,99.99
2022-11-25T04:51:03.911Z,99.99
2022-11-25T04:52:03.906Z,99.82
2022-11-25T04:53:03.889Z,99.93
2022-11-25T04:54:03.884Z,99.99
2022-11-25T04:55:03.871Z,99.99
2022-11-25T04:56:03.905Z,99.82
2022-11-25T04:57:03.855Z,99.99
2022-11-25T04:58:03.849Z,99.99
2022-11-25T04:59:03.836Z,99.99
2022-11-25T05:00:03.827Z,99.93
2022-11-25T05:01:03.935Z,99.93
2022-11-25T05:02:03.860Z,99.82
2022-11-25T05:03:03.804Z,99.82
2022-11-25T05:04:03.791Z,99.82
2022-11-25T05:05:03.774Z,99.82
2022-11-25T05:06:03.789Z,99.51
2022-11-25T05:07:03.779Z,99.30
2022-11-25T05:08:03.766Z,99.30
2022-11-25T05:09:03.742Z,99.30
2022-11-25T05:10:03.725Z,99.19
2022-11-25T05:11:03.757Z,99.30
2022-11-25T05:12:03.722Z,99.40
2022-11-25T05:13:03.715Z,99.30
2022-11-25T05:14:03.674Z,99.19
2022-11-25T05:15:03.705Z,99.30
2022-11-25T05:16:03.660Z,99.40
2022-11-25T05:17:03.748Z,99.25
2022-11-25T05:18:03.690Z,99.35
2022-11-25T05:19:03.635Z,99.25
2022-11-25T05:20:03.627Z,99.25
2022-11-25T05:21:03.656Z,99.04
2022-11-25T05:22:03.600Z,99.04
2022-11-25T05:23:03.595Z,99.35
2022-11-25T05:24:03.612Z,99.57
2022-11-25T05:25:03.564Z,99.35
2022-11-25T05:26:03.580Z,99.25
2022-11-25T05:27:03.595Z,98.94
2022-11-25T05:28:03.567Z,99.35
2022-11-25T05:29:03.530Z,99.67
2022-11-25T05:30:03.543Z,99.77
2022-11-25T05:31:03.657Z,99.77
2022-11-25T05:32:03.494Z,99.67
2022-11-25T05:33:03.494Z,99.57
2022-11-25T05:34:03.483Z,99.25
2022-11-25T05:35:04.259Z,99.88
2022-11-25T05:36:03.460Z,99.67
2022-11-25T05:37:03.485Z,99.57
2022-11-25T05:38:03.437Z,99.15
2022-11-25T05:39:03.479Z,99.10
2022-11-25T05:40:03.422Z,98.37
2022-11-25T05:41:03.415Z,98.37
2022-11-25T05:42:03.406Z,98.58
2022-11-25T05:43:03.412Z,99.10
2022-11-25T05:44:03.393Z,99.10
2022-11-25T05:45:03.379Z,99.21
2022-11-25T05:46:03.468Z,98.89
2022-11-25T05:47:03.362Z,98.16
2022-11-25T05:48:03.333Z,97.74
2022-11-25T05:49:03.345Z,98.16
2022-11-25T05:50:03.321Z,98.37
2022-11-25T05:51:03.366Z,98.05
2022-11-25T05:52:03.312Z,97.95
2022-11-25T05:53:03.295Z,97.63
2022-11-25T05:54:03.284Z,97.63
2022-11-25T05:55:03.294Z,97.53
2022-11-25T05:56:03.340Z,97.22
2022-11-25T05:57:03.251Z,97.32
2022-11-25T05:58:03.232Z,97.42
2022-11-25T05:59:03.778Z,97.42
2022-11-25T06:00:03.238Z,97.42
2022-11-25T06:01:03.218Z,97.22
2022-11-25T06:02:03.307Z,97.06
2022-11-25T06:03:03.342Z,97.32
2022-11-25T06:04:03.178Z,97.49
2022-11-25T06:05:03.173Z,97.32
2022-11-25T06:06:03.159Z,97.32
2022-11-25T06:07:03.179Z,97.28
2022-11-25T06:08:03.135Z,97.06
2022-11-25T06:09:03.152Z,97.06
2022-11-25T06:10:03.620Z,97.11
2022-11-25T06:11:03.107Z,97.32
2022-11-25T06:12:03.761Z,97.42
2022-11-25T06:13:03.089Z,97.63
2022-11-25T06:14:03.111Z,97.32
2022-11-25T06:15:03.090Z,98.05
2022-11-25T06:16:07.636Z,98.58
2022-11-25T06:17:03.071Z,98.37
2022-11-25T06:18:03.031Z,98.26
2022-11-25T06:19:03.028Z,98.37
2022-11-25T06:20:03.039Z,98.37
2022-11-25T06:21:03.013Z,98.31
2022-11-25T06:22:03.036Z,98.21
2022-11-25T06:23:02.983Z,97.99
2022-11-25T06:24:02.974Z,97.99
2022-11-25T06:25:04.030Z,97.93
2022-11-25T06:26:03.014Z,98.04
2022-11-25T06:27:02.955Z,98.46
2022-11-25T06:28:12.747Z,98.67
2022-11-25T06:29:03.924Z,98.98
2022-11-25T06:30:02.956Z,99.19
2022-11-25T06:31:02.988Z,99.19
2022-11-25T06:32:02.924Z,99.08
2022-11-25T06:33:02.885Z,99.08
2022-11-25T06:34:02.876Z,99.40
2022-11-25T06:35:02.879Z,99.71
2022-11-25T06:36:02.892Z,99.93
2022-11-25T06:37:02.840Z,99.93
2022-11-25T06:38:02.826Z,99.99
2022-11-25T06:39:02.839Z,99.93
2022-11-25T06:40:02.819Z,99.99
2022-11-25T06:41:02.805Z,99.93
2022-11-25T06:42:02.809Z,99.46
2022-11-25T06:43:02.782Z,99.15
2022-11-25T06:44:02.768Z,99.15
2022-11-25T06:45:02.767Z,99.04
2022-11-25T06:46:02.867Z,99.15
2022-11-25T06:47:02.781Z,99.15
2022-11-25T06:48:02.778Z,98.72
2022-11-25T06:49:02.729Z,98.83
2022-11-25T06:50:02.715Z,98.41
2022-11-25T06:51:02.704Z,98.21
2022-11-25T06:52:02.751Z,98.21
2022-11-25T06:53:02.682Z,98.31
2022-11-25T06:54:02.665Z,97.89
2022-11-25T06:55:02.663Z,97.78
2022-11-25T06:56:02.648Z,97.89
2022-11-25T06:57:02.661Z,97.89
2022-11-25T06:58:28.358Z,98.14
2022-11-25T06:59:03.620Z,98.35
2022-11-25T07:00:02.628Z,98.35
2022-11-25T07:01:02.600Z,98.04
2022-11-25T07:02:02.666Z,98.46
2022-11-25T07:03:02.661Z,98.31
2022-11-25T07:04:02.616Z,97.99
2022-11-25T07:05:02.590Z,97.58
2022-11-25T07:06:02.552Z,97.58
2022-11-25T07:07:02.549Z,97.00
2022-11-25T07:08:02.522Z,96.59
2022-11-25T07:09:02.629Z,95.64
2022-11-25T07:10:02.509Z,94.97
2022-11-25T07:11:02.500Z,94.76
2022-11-25T07:12:02.495Z,95.18
2022-11-25T07:13:02.478Z,94.76
2022-11-25T07:14:02.552Z,93.78
2022-11-25T07:15:02.490Z,93.15
2022-11-25T07:16:02.521Z,92.69
2022-11-25T07:17:04.229Z,92.38
2022-11-25T07:18:03.438Z,92.38
2022-11-25T07:19:02.443Z,92.27
2022-11-25T07:20:02.466Z,92.27
2022-11-25T07:21:03.259Z,92.02
2022-11-25T07:22:02.387Z,91.50
2022-11-25T07:23:03.270Z,91.91
2022-11-25T07:24:02.372Z,92.13
2022-11-25T07:25:02.380Z,91.77
2022-11-25T07:26:02.413Z,91.14
2022-11-25T07:27:02.394Z,90.83
2022-11-25T07:28:02.348Z,90.89
2022-11-25T07:29:02.385Z,91.00
2022-11-25T07:31:23.285Z,90.22
2022-11-25T07:32:08.732Z,90.01
2022-11-25T07:33:03.329Z,90.12
2022-11-25T07:34:02.264Z,89.81
2022-11-25T07:35:02.284Z,89.76
2022-11-25T07:36:02.276Z,89.24
2022-11-25T07:37:02.243Z,89.45
2022-11-25T07:38:02.248Z,89.56
2022-11-25T07:39:02.274Z,89.62
2022-11-25T07:40:02.205Z,89.41
2022-11-25T07:41:02.190Z,88.68
2022-11-25T07:42:02.178Z,88.32
2022-11-25T07:43:02.206Z,88.12
2022-11-25T07:44:02.170Z,88.22
2022-11-25T07:45:02.148Z,87.04
2022-11-25T07:46:02.181Z,85.85
2022-11-25T07:47:02.169Z,84.45
2022-11-25T07:48:02.151Z,82.75
2022-11-25T07:49:02.779Z,82.44
2022-11-25T07:50:02.104Z,83.97
2022-11-25T07:51:02.090Z,84.39
2022-11-25T07:52:02.102Z,85.16
2022-11-25T07:53:02.131Z,85.16
2022-11-25T07:54:02.123Z,86.13
2022-11-25T07:55:02.045Z,86.55
2022-11-25T07:56:02.037Z,87.07
2022-11-25T07:57:02.034Z,86.97
2022-11-25T07:58:02.025Z,87.28
2022-11-25T07:59:02.042Z,87.55
2022-11-25T08:00:01.997Z,87.35
2022-11-25T08:01:01.991Z,87.76
2022-11-25T08:02:02.090Z,87.66
2022-11-25T08:03:02.077Z,86.30
2022-11-25T08:04:02.023Z,86.20
2022-11-25T08:05:01.944Z,86.93
2022-11-25T08:06:01.952Z,86.20
2022-11-25T08:07:01.931Z,86.41
2022-11-25T08:08:02.151Z,86.30
2022-11-25T08:09:01.911Z,86.61
2022-11-25T08:10:01.962Z,86.61
2022-11-25T08:11:01.887Z,86.61
2022-11-25T08:12:01.894Z,86.72
2022-11-25T08:13:01.865Z,86.68
2022-11-25T08:14:01.869Z,86.68
2022-11-25T08:15:01.871Z,86.16
2022-11-25T08:16:01.865Z,85.85
2022-11-25T08:17:06.788Z,85.60
2022-11-25T08:18:01.817Z,85.29
2022-11-25T08:19:01.814Z,84.98
2022-11-25T08:20:01.786Z,84.87
2022-11-25T08:21:01.822Z,84.66
2022-11-25T08:22:01.799Z,84.77
2022-11-25T08:23:01.968Z,84.77
2022-11-25T08:24:01.780Z,84.56
2022-11-25T08:25:01.748Z,84.04
2022-11-25T08:26:01.723Z,84.35
2022-11-25T08:27:01.726Z,84.35
2022-11-25T08:28:01.783Z,84.66
2022-11-25T08:29:01.756Z,84.35
2022-11-25T08:30:01.748Z,83.83
2022-11-25T08:31:01.738Z,84.14
2022-11-25T08:32:01.721Z,84.45
2022-11-25T08:33:01.811Z,83.94
2022-11-25T08:34:01.693Z,83.52
2022-11-25T08:35:01.625Z,83.80
2022-11-25T08:36:01.619Z,84.14
2022-11-25T08:37:01.605Z,84.04
2022-11-25T08:38:01.619Z,84.66
2022-11-25T08:39:01.626Z,84.35
2022-11-25T08:40:02.303Z,84.66
2022-11-25T08:41:01.578Z,84.45
2022-11-25T08:42:01.576Z,84.56
2022-11-25T08:43:01.566Z,84.63
2022-11-25T08:44:01.575Z,84.00
2022-11-25T08:45:01.542Z,82.78
2022-11-25T08:46:01.575Z,81.74
2022-11-25T08:47:01.595Z,80.83
2022-11-25T08:48:01.570Z,78.06
2022-11-25T08:49:01.495Z,75.46
2022-11-25T08:50:01.465Z,75.92
2022-11-25T08:51:01.474Z,75.74
2022-11-25T08:52:01.453Z,74.15
2022-11-25T08:53:01.500Z,68.21
2022-11-25T08:54:01.446Z,63.18
2022-11-25T08:55:01.441Z,61.53
2022-11-25T08:56:01.456Z,59.99
2022-11-25T08:57:01.422Z,60.37
2022-11-25T08:58:01.393Z,59.11
2022-11-25T08:59:01.522Z,59.26
2022-11-25T09:00:01.384Z,56.67
2022-11-25T09:01:01.381Z,55.59
2022-11-25T09:02:01.460Z,53.77
2022-11-25T09:03:04.230Z,53.21
2022-11-25T09:04:01.353Z,50.81
2022-11-25T09:05:01.307Z,49.27
2022-11-25T09:06:01.304Z,49.71
2022-11-25T09:07:01.322Z,48.94
2022-11-25T09:08:01.381Z,47.57
2022-11-25T09:09:01.320Z,46.04
2022-11-25T09:10:01.256Z,47.88
2022-11-25T09:11:01.357Z,47.96
2022-11-25T09:12:01.258Z,45.20
2022-11-25T09:13:01.382Z,47.04
2022-11-25T09:14:01.397Z,47.02
2022-11-25T09:15:01.195Z,44.96
2022-11-25T09:16:01.342Z,46.69
2022-11-25T09:17:05.837Z,45.77
2022-11-25T09:18:01.185Z,46.12
2022-11-25T09:19:01.159Z,47.42
2022-11-25T09:20:01.183Z,46.33
2022-11-25T09:21:01.130Z,47.65
2022-11-25T09:22:01.133Z,46.02
2022-11-25T09:23:01.211Z,45.65
2022-11-25T09:24:01.199Z,45.16
2022-11-25T09:25:01.121Z,46.51
2022-11-25T09:26:08.691Z,46.45
2022-11-25T09:27:01.066Z,46.25
2022-11-25T09:28:01.150Z,46.47
2022-11-25T09:29:01.148Z,47.39
2022-11-25T09:30:01.078Z,47.82
2022-11-25T09:31:01.135Z,48.15
2022-11-25T09:32:03.823Z,50.06
2022-11-25T09:33:01.125Z,49.22
2022-11-25T09:34:01.048Z,49.11
2022-11-25T09:35:00.989Z,49.60
2022-11-25T09:36:01.001Z,50.14
2022-11-25T09:37:00.979Z,51.29
2022-11-25T09:38:00.982Z,52.08
2022-11-25T09:39:00.964Z,53.85
2022-11-25T09:40:00.922Z,55.51
2022-11-25T09:41:00.933Z,55.28
2022-11-25T09:42:00.913Z,57.85
2022-11-25T09:43:00.936Z,57.46
2022-11-25T09:44:00.912Z,58.26
2022-11-25T09:45:00.971Z,58.47
2022-11-25T09:46:00.941Z,58.03
2022-11-25T09:47:00.866Z,57.26
2022-11-25T09:48:00.878Z,54.51
2022-11-25T09:49:00.849Z,50.50
2022-11-25T09:50:00.907Z,47.22
2022-11-25T09:51:00.828Z,47.77
2022-11-25T09:52:00.796Z,45.34
2022-11-25T09:53:00.801Z,42.23
2022-11-25T09:54:00.783Z,39.84
2022-11-25T09:55:00.777Z,40.20
2022-11-25T09:56:01.764Z,39.14
2022-11-25T09:57:00.737Z,38.92
2022-11-25T09:58:00.751Z,37.06
2022-11-25T09:59:00.717Z,37.73
2022-11-25T10:00:00.757Z,35.06
2022-11-25T10:01:00.720Z,35.05
2022-11-25T10:02:00.818Z,35.46
2022-11-25T10:03:00.914Z,33.44
2022-11-25T10:04:00.694Z,34.92
2022-11-25T10:05:00.708Z,33.42
2022-11-25T10:06:00.687Z,34.74
2022-11-25T10:07:00.735Z,35.82
2022-11-25T10:08:00.663Z,34.79
2022-11-25T10:09:00.615Z,33.62
2022-11-25T10:10:00.626Z,33.91
2022-11-25T10:11:00.633Z,33.57
2022-11-25T10:12:00.621Z,32.95
2022-11-25T10:13:00.575Z,32.30
2022-11-25T10:14:00.588Z,30.81
2022-11-25T10:15:00.553Z,31.01
2022-11-25T10:16:00.672Z,32.12
2022-11-25T10:17:00.571Z,31.48
2022-11-25T10:18:00.547Z,31.10
2022-11-25T10:19:00.572Z,30.27
2022-11-25T10:20:00.502Z,30.97
2022-11-25T10:21:00.491Z,30.47
2022-11-25T10:22:00.536Z,32.12
2022-11-25T10:23:00.469Z,30.67
2022-11-25T10:24:00.499Z,28.96
2022-11-25T10:25:00.454Z,29.74
2022-11-25T10:26:00.469Z,31.24
2022-11-25T10:27:00.443Z,30.84
2022-11-25T10:28:00.433Z,30.14
2022-11-25T10:29:00.433Z,30.80
2022-11-25T10:30:00.433Z,31.26
2022-11-25T10:31:00.478Z,30.52
2022-11-25T10:32:00.422Z,29.68
2022-11-25T10:33:02.485Z,30.31
2022-11-25T10:34:00.363Z,29.32
2022-11-25T10:35:00.401Z,31.24
2022-11-25T10:36:00.346Z,30.44
2022-11-25T10:37:00.321Z,32.05
2022-11-25T10:38:00.316Z,32.34
2022-11-25T10:39:00.314Z,34.27
2022-11-25T10:40:00.322Z,32.50
2022-11-25T10:41:00.281Z,32.33
2022-11-25T10:42:00.852Z,32.93
2022-11-25T10:43:00.268Z,30.83
2022-11-25T10:44:00.282Z,32.15
2022-11-25T10:45:00.303Z,31.33
2022-11-25T10:46:00.253Z,30.63
2022-11-25T10:47:15.875Z,31.74
2022-11-25T10:48:01.240Z,31.83
2022-11-25T10:49:00.238Z,31.73
2022-11-25T10:50:00.196Z,32.90
2022-11-25T10:51:00.199Z,30.65
2022-11-25T10:52:00.174Z,30.76
2022-11-25T10:53:00.200Z,30.54
2022-11-25T10:54:00.157Z,29.95
2022-11-25T10:55:00.173Z,30.34
2022-11-25T10:56:00.154Z,35.38
2022-11-25T10:57:00.142Z,38.07
2022-11-25T10:58:00.121Z,38.01
2022-11-25T10:59:00.115Z,39.75
2022-11-25T11:00:00.165Z,41.22
2022-11-25T11:01:00.136Z,40.98
2022-11-25T11:02:00.152Z,37.50
2022-11-25T11:03:00.142Z,42.39
2022-11-25T11:04:00.087Z,41.12
2022-11-25T11:05:00.882Z,42.29
2022-11-25T11:06:00.047Z,41.74
2022-11-25T11:07:00.009Z,41.09
2022-11-25T11:08:00.141Z,39.50
2022-11-25T11:09:00.072Z,37.93
2022-11-25T11:09:59.994Z,36.54
2022-11-25T11:10:59.994Z,37.80
2022-11-25T11:11:59.963Z,36.04
2022-11-25T11:12:59.977Z,34.81
2022-11-25T11:13:59.946Z,35.75
2022-11-25T11:14:59.938Z,36.55
2022-11-25T11:16:00.009Z,40.37
2022-11-25T11:16:59.959Z,41.50
2022-11-25T11:17:59.932Z,41.09
2022-11-25T11:18:59.887Z,41.36
2022-11-25T11:19:59.997Z,42.72
2022-11-25T11:20:59.866Z,42.33
2022-11-25T11:21:59.855Z,44.30
2022-11-25T11:23:04.175Z,47.47
2022-11-25T11:24:00.871Z,47.19
2022-11-25T11:24:59.825Z,47.42
2022-11-25T11:26:00.398Z,46.37
2022-11-25T11:26:59.818Z,46.85
2022-11-25T11:27:59.833Z,48.58
2022-11-25T11:28:59.819Z,49.27
2022-11-25T11:29:59.779Z,48.27
2022-11-25T11:30:59.867Z,51.05
2022-11-25T11:31:59.790Z,50.87
2022-11-25T11:32:59.767Z,50.03
2022-11-25T11:33:59.730Z,51.05
2022-11-25T11:34:59.776Z,50.84
2022-11-25T11:35:59.739Z,50.84
2022-11-25T11:36:59.742Z,51.13
2022-11-25T11:37:59.733Z,49.48
2022-11-25T11:38:59.675Z,50.47
2022-11-25T11:39:59.667Z,49.02
2022-11-25T11:40:59.978Z,47.50
2022-11-25T11:41:59.640Z,47.72
2022-11-25T11:42:59.636Z,47.90
2022-11-25T11:43:59.625Z,47.90
2022-11-25T11:44:59.657Z,47.82
2022-11-25T11:45:59.636Z,49.42
2022-11-25T11:46:59.656Z,50.54
2022-11-25T11:47:59.606Z,49.52
2022-11-25T11:48:59.593Z,50.99
2022-11-25T11:49:59.563Z,52.75
2022-11-25T11:50:59.557Z,52.96
2022-11-25T11:51:59.599Z,54.31
2022-11-25T11:52:59.537Z,54.00
2022-11-25T11:53:59.508Z,54.61
2022-11-25T11:54:59.499Z,54.87
2022-11-25T11:56:33.135Z,55.05
2022-11-25T11:57:00.549Z,55.15
2022-11-25T11:57:59.490Z,54.74
2022-11-25T11:58:59.492Z,55.05
2022-11-25T11:59:59.487Z,54.33
2022-11-25T12:00:59.439Z,55.15
2022-11-25T12:01:59.531Z,54.74
2022-11-25T12:02:59.546Z,54.74
2022-11-25T12:03:59.408Z,56.07
2022-11-25T12:04:59.387Z,56.27
2022-11-25T12:05:59.462Z,56.45
2022-11-25T12:06:59.388Z,55.02
2022-11-25T12:07:59.644Z,54.61
2022-11-25T12:08:59.360Z,54.33
2022-11-25T12:09:59.891Z,57.20
2022-11-25T12:10:59.368Z,55.66
2022-11-25T12:11:59.349Z,56.07
2022-11-25T12:12:59.310Z,55.49
2022-11-25T12:14:00.994Z,56.51
2022-11-25T12:14:59.290Z,55.99
2022-11-25T12:15:59.338Z,56.07
2022-11-25T12:16:59.290Z,56.17
2022-11-25T12:17:59.279Z,55.66
2022-11-25T12:18:59.280Z,55.97
2022-11-25T12:19:59.230Z,56.10
2022-11-25T12:20:59.234Z,56.63
2022-11-25T12:22:00.502Z,56.56
2022-11-25T12:22:59.897Z,56.81
2022-11-25T12:23:59.221Z,56.07
2022-11-25T12:24:59.172Z,55.15
2022-11-25T12:25:59.166Z,55.26
2022-11-25T12:26:59.253Z,56.20
2022-11-25T12:27:59.175Z,56.40
2022-11-25T12:28:59.137Z,55.66
2022-11-25T12:29:59.128Z,54.59
2022-11-25T12:31:04.592Z,54.61
2022-11-25T12:32:00.268Z,56.40
2022-11-25T12:32:59.107Z,56.27
2022-11-25T12:33:59.076Z,56.79
2022-11-25T12:34:59.069Z,56.38
2022-11-25T12:35:59.454Z,55.87
2022-11-25T12:36:59.052Z,56.68
2022-11-25T12:37:59.041Z,56.89
2022-11-25T12:38:59.032Z,57.29
2022-11-25T12:39:59.048Z,56.68
2022-11-25T12:40:59.036Z,56.96
2022-11-25T12:41:59.022Z,56.89
2022-11-25T12:42:59.001Z,57.50
2022-11-25T12:43:59.011Z,57.29
2022-11-25T12:44:58.968Z,57.40
2022-11-25T12:45:59.034Z,57.93
2022-11-25T12:46:59.919Z,58.89
2022-11-25T12:47:58.957Z,59.09
2022-11-25T12:48:58.909Z,59.09
2022-11-25T12:49:58.905Z,59.57
2022-11-25T12:50:59.017Z,59.16
2022-11-25T12:51:58.888Z,59.19
2022-11-25T12:52:58.910Z,59.37
2022-11-25T12:53:58.864Z,60.03